Time,TemperatureF,DewpointF,PressureIn,WindDirection,WindDirectionDegrees,WindSpeedMPH,WindSpeedGustMPH,Humidity,HourlyPrecipIn,Conditions,Clouds,dailyrainin,SolarRadiationWatts/m^2,SoftwareType,DateUTC
2013-06-08 00:03:00,53.5,52.0,29.95,NNE,22,1.0,11.0,96,0.10,,,0.00,0,weatherlink.com 1.10,2013-06-08 04:03:00,
2013-06-08 00:18:00,53.5,52.0,29.95,North,9,1.0,10.0,96,0.13,,,0.05,0,weatherlink.com 1.10,2013-06-08 04:18:00,
2013-06-08 00:33:00,53.7,53.0,29.94,East,86,1.0,10.0,96,0.14,,,0.08,0,weatherlink.com 1.10,2013-06-08 04:33:00,
2013-06-08 00:48:00,53.8,53.0,29.93,NE,48,4.0,11.0,96,0.12,,,0.10,0,weatherlink.com 1.10,2013-06-08 04:48:00,
2013-06-08 01:04:00,54.0,53.0,29.91,NE,43,2.0,6.0,96,0.11,,,0.12,0,weatherlink.com 1.10,2013-06-08 05:04:00,
2013-06-08 01:19:00,54.2,53.0,29.91,ENE,64,5.0,8.0,96,0.08,,,0.13,0,weatherlink.com 1.10,2013-06-08 05:19:00,
2013-06-08 01:34:00,54.2,53.0,29.89,ENE,63,1.0,10.0,96,0.05,,,0.13,0,weatherlink.com 1.10,2013-06-08 05:34:00,
2013-06-08 01:49:00,54.1,53.0,29.88,NNE,19,9.0,12.0,96,0.04,,,0.14,0,weatherlink.com 1.10,2013-06-08 05:49:00,
2013-06-08 02:04:00,54.0,53.0,29.86,SE,132,4.0,11.0,96,0.04,,,0.16,0,weatherlink.com 1.10,2013-06-08 06:04:00,
2013-06-08 02:19:00,53.8,53.0,29.86,East,81,3.0,13.0,96,0.04,,,0.17,0,weatherlink.com 1.10,2013-06-08 06:19:00,
2013-06-08 02:34:00,53.7,53.0,29.86,NE,44,6.0,11.0,96,0.05,,,0.18,0,weatherlink.com 1.10,2013-06-08 06:34:00,
2013-06-08 02:49:00,53.6,53.0,29.83,NE,51,7.0,11.0,96,0.05,,,0.19,0,weatherlink.com 1.10,2013-06-08 06:49:00,
2013-06-08 03:04:00,53.5,52.0,29.83,NE,42,3.0,12.0,96,0.04,,,0.20,0,weatherlink.com 1.10,2013-06-08 07:04:00,
2013-06-08 03:19:00,53.3,52.0,29.82,South,184,4.0,11.0,96,0.04,,,0.21,0,weatherlink.com 1.10,2013-06-08 07:19:00,
2013-06-08 03:34:00,53.4,52.0,29.81,East,83,9.0,15.0,95,0.04,,,0.22,0,weatherlink.com 1.10,2013-06-08 07:34:00,
2013-06-08 03:49:00,53.3,52.0,29.82,South,180,2.0,12.0,95,0.05,,,0.24,0,weatherlink.com 1.10,2013-06-08 07:49:00,
2013-06-08 04:04:00,53.1,52.0,29.80,West,273,2.0,14.0,95,0.12,,,0.32,0,weatherlink.com 1.10,2013-06-08 08:04:00,
2013-06-08 04:19:00,53.0,52.0,29.79,NE,42,8.0,12.0,96,0.15,,,0.36,0,weatherlink.com 1.10,2013-06-08 08:19:00,
2013-06-08 04:34:00,53.0,52.0,29.77,ESE,102,4.0,14.0,96,0.17,,,0.39,0,weatherlink.com 1.10,2013-06-08 08:34:00,
2013-06-08 04:49:00,53.0,52.0,29.77,West,267,0.0,12.0,96,0.19,,,0.43,0,weatherlink.com 1.10,2013-06-08 08:49:00,
2013-06-08 05:04:00,52.9,52.0,29.77,SW,234,0.0,13.0,96,0.13,,,0.45,0,weatherlink.com 1.10,2013-06-08 09:04:00,
2013-06-08 05:19:00,52.9,52.0,29.77,ESE,113,3.0,7.0,96,0.09,,,0.45,5,weatherlink.com 1.10,2013-06-08 09:19:00,
2013-06-08 05:34:00,52.8,52.0,29.76,SE,129,2.0,11.0,96,0.06,,,0.46,7,weatherlink.com 1.10,2013-06-08 09:34:00,
2013-06-08 05:49:00,52.8,52.0,29.75,East,84,0.0,11.0,96,0.03,,,0.46,18,weatherlink.com 1.10,2013-06-08 09:49:00,
2013-06-08 06:04:00,52.7,52.0,29.74,NW,326,2.0,8.0,96,0.08,,,0.53,19,weatherlink.com 1.10,2013-06-08 10:04:00,
2013-06-08 06:19:00,52.7,52.0,29.74,NE,44,5.0,11.0,96,0.08,,,0.53,26,weatherlink.com 1.10,2013-06-08 10:19:00,
2013-06-08 06:34:00,52.7,52.0,29.74,NNE,26,4.0,13.0,96,0.19,,,0.65,12,weatherlink.com 1.10,2013-06-08 10:34:00,
2013-06-08 06:49:00,52.7,52.0,29.73,NNE,30,6.0,6.0,96,0.45,,,0.91,30,weatherlink.com 1.10,2013-06-08 10:49:00,
2013-06-08 07:04:00,52.8,52.0,29.72,SSW,192,3.0,9.0,96,0.52,,,1.05,7,weatherlink.com 1.10,2013-06-08 11:04:00,
2013-06-08 07:19:00,52.9,52.0,29.70,North,5,0.0,5.0,96,0.62,,,1.15,5,weatherlink.com 1.10,2013-06-08 11:19:00,
2013-06-08 07:35:00,53.1,52.0,29.69,ENE,75,2.0,7.0,97,0.53,,,1.18,11,weatherlink.com 1.10,2013-06-08 11:35:00,
2013-06-08 07:50:00,53.3,53.0,29.69,East,87,0.0,7.0,97,0.33,,,1.24,12,weatherlink.com 1.10,2013-06-08 11:50:00,
2013-06-08 08:05:00,53.3,53.0,29.68,East,90,0.0,9.0,97,0.30,,,1.35,7,weatherlink.com 1.10,2013-06-08 12:05:00,
2013-06-08 08:20:00,53.5,53.0,29.68,NE,42,1.0,5.0,97,0.23,,,1.38,25,weatherlink.com 1.10,2013-06-08 12:20:00,
2013-06-08 08:35:00,53.6,53.0,29.67,ESE,112,1.0,14.0,96,0.22,,,1.40,42,weatherlink.com 1.10,2013-06-08 12:35:00,
2013-06-08 08:50:00,53.9,53.0,29.66,East,91,0.0,8.0,97,0.17,,,1.41,86,weatherlink.com 1.10,2013-06-08 12:50:00,
2013-06-08 09:05:00,54.4,54.0,29.65,ENE,76,5.0,8.0,97,0.06,,,1.41,114,weatherlink.com 1.10,2013-06-08 13:05:00,
2013-06-08 09:20:00,54.8,54.0,29.64,ENE,57,3.0,9.0,97,0.04,,,1.42,114,weatherlink.com 1.10,2013-06-08 13:20:00,
2013-06-08 09:35:00,55.2,54.0,29.64,NE,50,0.0,7.0,97,0.04,,,1.44,123,weatherlink.com 1.10,2013-06-08 13:35:00,
2013-06-08 09:50:00,55.5,54.0,29.63,SW,225,1.0,10.0,96,0.03,,,1.44,155,weatherlink.com 1.10,2013-06-08 13:50:00,
2013-06-08 10:05:00,55.8,55.0,29.62,South,177,0.0,10.0,96,0.04,,,1.45,181,weatherlink.com 1.10,2013-06-08 14:05:00,
2013-06-08 10:20:00,56.4,56.0,29.62,NE,34,3.0,6.0,97,0.03,,,1.45,200,weatherlink.com 1.10,2013-06-08 14:20:00,
2013-06-08 10:35:00,57.2,56.0,29.61,South,174,1.0,7.0,97,0.01,,,1.45,302,weatherlink.com 1.10,2013-06-08 14:35:00,
2013-06-08 10:50:00,58.4,58.0,29.60,ENE,63,3.0,7.0,97,0.01,,,1.45,336,weatherlink.com 1.10,2013-06-08 14:50:00,
2013-06-08 11:05:00,59.4,59.0,29.59,West,270,1.0,8.0,97,0.01,,,1.46,487,weatherlink.com 1.10,2013-06-08 15:05:00,
2013-06-08 11:20:00,59.7,58.0,29.59,NE,42,1.0,10.0,95,0.01,,,1.46,468,weatherlink.com 1.10,2013-06-08 15:20:00,
2013-06-08 11:35:00,60.7,59.0,29.59,ESE,105,3.0,9.0,94,0.01,,,1.46,394,weatherlink.com 1.10,2013-06-08 15:35:00,
2013-06-08 11:50:00,61.0,59.0,29.61,NE,40,2.0,8.0,94,0.01,,,1.46,207,weatherlink.com 1.10,2013-06-08 15:50:00,
2013-06-08 12:05:00,60.9,59.0,29.59,NNW,335,5.0,10.0,92,0.00,,,1.46,450,weatherlink.com 1.10,2013-06-08 16:05:00,
2013-06-08 12:20:00,61.6,59.0,29.60,WNW,303,4.0,6.0,91,0.00,,,1.46,309,weatherlink.com 1.10,2013-06-08 16:20:00,
2013-06-08 12:35:00,60.4,58.0,29.61,NNW,336,3.0,9.0,93,0.00,,,1.46,316,weatherlink.com 1.10,2013-06-08 16:35:00,
2013-06-08 12:50:00,60.4,58.0,29.61,WNW,286,11.0,11.0,92,0.00,,,1.46,431,weatherlink.com 1.10,2013-06-08 16:50:00,
2013-06-08 13:05:00,61.5,59.0,29.61,NNE,13,5.0,12.0,91,0.00,,,1.46,527,weatherlink.com 1.10,2013-06-08 17:05:00,
2013-06-08 13:20:00,62.1,60.0,29.62,NE,37,9.0,14.0,91,0.00,,,1.46,489,weatherlink.com 1.10,2013-06-08 17:20:00,
2013-06-08 13:35:00,62.3,59.0,29.62,NNE,18,4.0,10.0,88,0.00,,,1.46,343,weatherlink.com 1.10,2013-06-08 17:35:00,
2013-06-08 13:50:00,62.2,58.0,29.63,NW,309,7.0,11.0,86,0.00,,,1.46,325,weatherlink.com 1.10,2013-06-08 17:50:00,
2013-06-08 14:05:00,62.4,58.0,29.64,North,349,5.0,14.0,86,0.00,,,1.46,334,weatherlink.com 1.10,2013-06-08 18:05:00,
2013-06-08 14:20:00,62.9,58.0,29.64,North,360,9.0,13.0,84,0.00,,,1.46,248,weatherlink.com 1.10,2013-06-08 18:20:00,
2013-06-08 14:35:00,61.7,58.0,29.65,WNW,298,2.0,16.0,87,0.00,,,1.46,378,weatherlink.com 1.10,2013-06-08 18:35:00,
2013-06-08 14:50:00,61.7,58.0,29.66,NNW,344,4.0,15.0,87,0.00,,,1.46,429,weatherlink.com 1.10,2013-06-08 18:50:00,
2013-06-08 15:05:00,61.7,57.0,29.67,West,275,5.0,12.0,85,0.00,,,1.46,353,weatherlink.com 1.10,2013-06-08 19:05:00,
2013-06-08 16:19:00,62.8,57.0,29.72,NNE,20,4.0,13.0,81,0.00,,,1.46,538,weatherlink.com 1.10,2013-06-08 20:19:00,
2013-06-08 16:34:00,62.6,57.0,29.74,WNW,287,6.0,14.0,81,0.00,,,1.46,188,weatherlink.com 1.10,2013-06-08 20:34:00,
2013-06-08 16:49:00,62.7,56.0,29.74,NNW,337,7.0,11.0,80,0.00,,,1.46,496,weatherlink.com 1.10,2013-06-08 20:49:00,
2013-06-08 17:04:00,62.2,56.0,29.75,North,350,4.0,10.0,81,0.00,,,1.46,255,weatherlink.com 1.10,2013-06-08 21:04:00,
2013-06-08 17:19:00,62.1,56.0,29.76,West,274,1.0,9.0,81,0.00,,,1.46,137,weatherlink.com 1.10,2013-06-08 21:19:00,
2013-06-08 17:34:00,62.1,56.0,29.77,NNW,338,1.0,10.0,81,0.00,,,1.46,260,weatherlink.com 1.10,2013-06-08 21:34:00,
2013-06-08 17:49:00,63.1,57.0,29.79,WNW,284,7.0,9.0,79,0.00,,,1.46,218,weatherlink.com 1.10,2013-06-08 21:49:00,
2013-06-08 18:04:00,62.8,56.0,29.80,WNW,295,4.0,11.0,79,0.00,,,1.46,79,weatherlink.com 1.10,2013-06-08 22:04:00,
2013-06-08 18:19:00,62.3,56.0,29.80,NW,322,3.0,9.0,81,0.00,,,1.46,146,weatherlink.com 1.10,2013-06-08 22:19:00,
2013-06-08 18:34:00,63.3,57.0,29.81,West,280,4.0,7.0,79,0.00,,,1.46,53,weatherlink.com 1.10,2013-06-08 22:34:00,
2013-06-08 18:49:00,62.5,56.0,29.82,WNW,294,5.0,6.0,80,0.00,,,1.46,86,weatherlink.com 1.10,2013-06-08 22:49:00,
2013-06-08 19:04:00,62.1,57.0,29.82,WSW,240,0.0,4.0,82,0.00,,,1.46,47,weatherlink.com 1.10,2013-06-08 23:04:00,
2013-06-08 19:19:00,62.2,57.0,29.83,WNW,290,2.0,3.0,83,0.00,,,1.46,21,weatherlink.com 1.10,2013-06-08 23:19:00,
2013-06-08 19:34:00,61.6,57.0,29.83,NW,311,0.0,2.0,85,0.00,,,1.46,19,weatherlink.com 1.10,2013-06-08 23:34:00,
2013-06-08 19:49:00,61.2,57.0,29.85,NW,312,0.0,2.0,86,0.00,,,1.46,9,weatherlink.com 1.10,2013-06-08 23:49:00,
2013-06-08 20:04:00,60.8,58.0,29.86,NW,312,0.0,0.0,89,0.00,,,1.46,0,weatherlink.com 1.10,2013-06-09 00:04:00,
2013-06-08 20:19:00,60.3,57.0,29.86,West,261,0.0,1.0,89,0.00,,,1.46,0,weatherlink.com 1.10,2013-06-09 00:19:00,
2013-06-08 20:34:00,60.0,57.0,29.87,West,261,0.0,1.0,89,0.00,,,1.46,0,weatherlink.com 1.10,2013-06-09 00:34:00,
2013-06-08 20:49:00,59.6,57.0,29.88,WSW,254,0.0,3.0,90,0.00,,,1.46,0,weatherlink.com 1.10,2013-06-09 00:49:00,
2013-06-08 21:04:00,59.4,57.0,29.89,WSW,254,0.0,1.0,91,0.00,,,1.46,0,weatherlink.com 1.10,2013-06-09 01:04:00,
2013-06-08 21:19:00,59.1,57.0,29.88,NNE,16,1.0,3.0,91,0.00,,,1.46,0,weatherlink.com 1.10,2013-06-09 01:19:00,
2013-06-08 21:34:00,58.7,56.0,29.89,WNW,292,0.0,4.0,91,0.00,,,1.46,0,weatherlink.com 1.10,2013-06-09 01:34:00,
2013-06-08 21:49:00,58.5,56.0,29.90,WSW,250,0.0,3.0,91,0.00,,,1.46,0,weatherlink.com 1.10,2013-06-09 01:49:00,
2013-06-08 22:04:00,58.3,56.0,29.91,WSW,250,0.0,3.0,90,0.00,,,1.46,0,weatherlink.com 1.10,2013-06-09 02:04:00,
2013-06-08 22:20:00,58.2,56.0,29.91,WNW,301,0.0,0.0,92,0.00,,,1.46,0,weatherlink.com 1.10,2013-06-09 02:20:00,
2013-06-08 22:34:00,58.1,56.0,29.90,WNW,301,0.0,2.0,92,0.00,,,1.46,0,weatherlink.com 1.10,2013-06-09 02:34:00,
2013-06-08 22:49:00,57.9,56.0,29.92,WSW,249,0.0,3.0,92,0.00,,,1.46,0,weatherlink.com 1.10,2013-06-09 02:49:00,
2013-06-08 23:04:00,57.6,55.0,29.91,NNW,338,0.0,4.0,90,0.00,,,1.46,0,weatherlink.com 1.10,2013-06-09 03:04:00,
2013-06-08 23:19:00,57.4,55.0,29.90,NW,317,0.0,5.0,90,0.00,,,1.46,0,weatherlink.com 1.10,2013-06-09 03:19:00,
2013-06-08 23:34:00,57.1,54.0,29.91,West,259,0.0,2.0,90,0.00,,,1.46,0,weatherlink.com 1.10,2013-06-09 03:34:00,
2013-06-08 23:49:00,56.6,54.0,29.91,West,260,0.0,0.0,91,0.00,,,1.46,0,weatherlink.com 1.10,2013-06-09 03:49:00,